sensor_id;sensor_type;location;lat;lon;timestamp;temperature;humidity
21744;DHT22;11034;48.556;9.342;2022-11-03T00:01:33;7.80;99.90
21744;DHT22;11034;48.556;9.342;2022-11-03T00:04:01;8.00;99.90
21744;DHT22;11034;48.556;9.342;2022-11-03T00:06:29;8.00;99.90
21744;DHT22;11034;48.556;9.342;2022-11-03T00:09:00;8.00;99.90
21744;DHT22;11034;48.556;9.342;2022-11-03T00:11:31;8.00;99.90
21744;DHT22;11034;48.556;9.342;2022-11-03T00:14:00;8.00;99.90
21744;DHT22;11034;48.556;9.342;2022-11-03T00:16:28;8.00;99.90
21744;DHT22;11034;48.556;9.342;2022-11-03T00:18:56;7.90;99.90
21744;DHT22;11034;48.556;9.342;2022-11-03T00:21:24;8.10;99.90
21744;DHT22;11034;48.556;9.342;2022-11-03T00:23:52;8.20;99.90
21744;DHT22;11034;48.556;9.342;2022-11-03T00:26:23;8.10;99.90
21744;DHT22;11034;48.556;9.342;2022-11-03T00:28:53;8.00;99.90
21744;DHT22;11034;48.556;9.342;2022-11-03T00:31:23;7.90;99.90
21744;DHT22;11034;48.556;9.342;2022-11-03T00:33:52;7.90;99.90
21744;DHT22;11034;48.556;9.342;2022-11-03T00:36:22;7.90;99.90
21744;DHT22;11034;48.556;9.342;2022-11-03T00:38:50;8.30;99.90
21744;DHT22;11034;48.556;9.342;2022-11-03T00:41:19;8.60;99.90
21744;DHT22;11034;48.556;9.342;2022-11-03T00:43:53;8.80;99.90
21744;DHT22;11034;48.556;9.342;2022-11-03T00:46:22;8.70;99.90
21744;DHT22;11034;48.556;9.342;2022-11-03T00:48:50;8.70;99.90
21744;DHT22;11034;48.556;9.342;2022-11-03T00:51:19;8.60;99.90
21744;DHT22;11034;48.556;9.342;2022-11-03T00:53:50;8.50;99.90
21744;DHT22;11034;48.556;9.342;2022-11-03T00:56:20;8.70;99.90
21744;DHT22;11034;48.556;9.342;2022-11-03T00:58:51;8.60;99.90
21744;DHT22;11034;48.556;9.342;2022-11-03T01:01:21;8.70;99.90
21744;DHT22;11034;48.556;9.342;2022-11-03T01:03:51;8.80;99.90
21744;DHT22;11034;48.556;9.342;2022-11-03T01:06:38;8.90;99.90
21744;DHT22;11034;48.556;9.342;2022-11-03T01:09:21;8.90;99.90
21744;DHT22;11034;48.556;9.342;2022-11-03T01:11:54;9.00;99.90
21744;DHT22;11034;48.556;9.342;2022-11-03T01:14:25;9.00;99.90
21744;DHT22;11034;48.556;9.342;2022-11-03T01:16:53;9.00;99.90
21744;DHT22;11034;48.556;9.342;2022-11-03T01:19:21;9.00;99.90
21744;DHT22;11034;48.556;9.342;2022-11-03T01:21:51;9.00;99.90
21744;DHT22;11034;48.556;9.342;2022-11-03T01:24:19;8.90;99.90
21744;DHT22;11034;48.556;9.342;2022-11-03T01:26:47;8.90;99.90
21744;DHT22;11034;48.556;9.342;2022-11-03T01:29:16;8.90;99.90
21744;DHT22;11034;48.556;9.342;2022-11-03T01:31:46;8.80;99.90
21744;DHT22;11034;48.556;9.342;2022-11-03T01:34:16;8.80;99.90
21744;DHT22;11034;48.556;9.342;2022-11-03T01:36:44;8.90;99.90
21744;DHT22;11034;48.556;9.342;2022-11-03T01:39:14;9.00;99.90
21744;DHT22;11034;48.556;9.342;2022-11-03T01:41:45;9.10;99.90
21744;DHT22;11034;48.556;9.342;2022-11-03T01:44:24;9.20;99.90
21744;DHT22;11034;48.556;9.342;2022-11-03T01:47:00;9.20;99.90
21744;DHT22;11034;48.556;9.342;2022-11-03T01:49:34;9.20;99.90
21744;DHT22;11034;48.556;9.342;2022-11-03T01:52:08;9.20;99.90
21744;DHT22;11034;48.556;9.342;2022-11-03T01:54:38;9.10;99.90
21744;DHT22;11034;48.556;9.342;2022-11-03T01:57:11;9.10;99.90
21744;DHT22;11034;48.556;9.342;2022-11-03T01:59:41;9.00;99.90
21744;DHT22;11034;48.556;9.342;2022-11-03T02:02:11;9.10;99.90
21744;DHT22;11034;48.556;9.342;2022-11-03T02:04:40;9.20;99.90
21744;DHT22;11034;48.556;9.342;2022-11-03T02:07:14;9.10;99.90
21744;DHT22;11034;48.556;9.342;2022-11-03T02:09:44;9.00;99.90
21744;DHT22;11034;48.556;9.342;2022-11-03T02:12:13;8.90;99.90
21744;DHT22;11034;48.556;9.342;2022-11-03T02:14:47;8.90;99.90
21744;DHT22;11034;48.556;9.342;2022-11-03T02:17:19;8.80;99.90
21744;DHT22;11034;48.556;9.342;2022-11-03T02:19:52;8.70;99.90
21744;DHT22;11034;48.556;9.342;2022-11-03T02:22:58;8.90;99.90
21744;DHT22;11034;48.556;9.342;2022-11-03T02:25:45;9.10;99.90
21744;DHT22;11034;48.556;9.342;2022-11-03T02:28:15;9.10;99.90
21744;DHT22;11034;48.556;9.342;2022-11-03T02:30:47;9.10;99.90
21744;DHT22;11034;48.556;9.342;2022-11-03T02:33:28;9.00;99.90
21744;DHT22;11034;48.556;9.342;2022-11-03T02:36:00;8.90;99.90
21744;DHT22;11034;48.556;9.342;2022-11-03T02:38:32;8.90;99.90
21744;DHT22;11034;48.556;9.342;2022-11-03T02:41:06;8.90;99.90
21744;DHT22;11034;48.556;9.342;2022-11-03T02:43:36;8.90;99.90
21744;DHT22;11034;48.556;9.342;2022-11-03T02:46:05;9.00;99.90
21744;DHT22;11034;48.556;9.342;2022-11-03T02:48:34;9.00;99.90
21744;DHT22;11034;48.556;9.342;2022-11-03T02:51:02;8.90;99.90
21744;DHT22;11034;48.556;9.342;2022-11-03T02:53:36;8.90;99.90
21744;DHT22;11034;48.556;9.342;2022-11-03T02:56:10;9.00;99.90
21744;DHT22;11034;48.556;9.342;2022-11-03T02:58:43;8.80;99.90
21744;DHT22;11034;48.556;9.342;2022-11-03T03:01:17;8.80;99.90
21744;DHT22;11034;48.556;9.342;2022-11-03T03:03:49;8.80;99.90
21744;DHT22;11034;48.556;9.342;2022-11-03T03:06:22;8.70;99.90
21744;DHT22;11034;48.556;9.342;2022-11-03T03:08:53;8.50;99.90
21744;DHT22;11034;48.556;9.342;2022-11-03T03:11:24;8.50;99.90
21744;DHT22;11034;48.556;9.342;2022-11-03T03:14:09;8.40;99.90
21744;DHT22;11034;48.556;9.342;2022-11-03T03:16:46;8.30;99.90
21744;DHT22;11034;48.556;9.342;2022-11-03T03:19:21;8.30;99.90
21744;DHT22;11034;48.556;9.342;2022-11-03T03:21:52;8.40;99.90
21744;DHT22;11034;48.556;9.342;2022-11-03T03:24:27;8.50;99.90
21744;DHT22;11034;48.556;9.342;2022-11-03T03:27:00;8.50;99.90
21744;DHT22;11034;48.556;9.342;2022-11-03T03:29:33;8.40;99.90
21744;DHT22;11034;48.556;9.342;2022-11-03T03:32:07;8.30;99.90
21744;DHT22;11034;48.556;9.342;2022-11-03T03:34:38;8.20;99.90
21744;DHT22;11034;48.556;9.342;2022-11-03T03:37:10;8.00;99.90
21744;DHT22;11034;48.556;9.342;2022-11-03T03:39:40;7.80;99.90
21744;DHT22;11034;48.556;9.342;2022-11-03T03:42:13;7.60;99.90
21744;DHT22;11034;48.556;9.342;2022-11-03T03:44:42;7.30;99.90
21744;DHT22;11034;48.556;9.342;2022-11-03T03:47:15;7.10;99.90
21744;DHT22;11034;48.556;9.342;2022-11-03T03:49:44;6.90;99.90
21744;DHT22;11034;48.556;9.342;2022-11-03T03:52:13;6.80;99.90
21744;DHT22;11034;48.556;9.342;2022-11-03T03:54:41;6.70;99.90
21744;DHT22;11034;48.556;9.342;2022-11-03T03:57:13;6.70;99.90
21744;DHT22;11034;48.556;9.342;2022-11-03T03:59:42;6.70;99.90
21744;DHT22;11034;48.556;9.342;2022-11-03T04:02:11;6.70;99.90
21744;DHT22;11034;48.556;9.342;2022-11-03T04:04:39;6.70;99.90
21744;DHT22;11034;48.556;9.342;2022-11-03T04:07:08;6.80;99.90
21744;DHT22;11034;48.556;9.342;2022-11-03T04:09:53;6.90;99.90
21744;DHT22;11034;48.556;9.342;2022-11-03T04:12:23;7.00;99.90
21744;DHT22;11034;48.556;9.342;2022-11-03T04:15:11;7.00;99.90
21744;DHT22;11034;48.556;9.342;2022-11-03T04:17:56;6.90;99.90
21744;DHT22;11034;48.556;9.342;2022-11-03T04:20:42;6.80;99.90
21744;DHT22;11034;48.556;9.342;2022-11-03T04:23:27;6.70;99.90
21744;DHT22;11034;48.556;9.342;2022-11-03T04:25:55;6.70;99.90
21744;DHT22;11034;48.556;9.342;2022-11-03T04:28:25;6.70;99.90
21744;DHT22;11034;48.556;9.342;2022-11-03T04:30:55;6.70;99.90
21744;DHT22;11034;48.556;9.342;2022-11-03T04:33:25;6.70;99.90
21744;DHT22;11034;48.556;9.342;2022-11-03T04:35:55;6.80;99.90
21744;DHT22;11034;48.556;9.342;2022-11-03T04:38:25;6.80;99.90
21744;DHT22;11034;48.556;9.342;2022-11-03T04:40:55;6.80;99.90
21744;DHT22;11034;48.556;9.342;2022-11-03T04:43:32;6.80;99.90
21744;DHT22;11034;48.556;9.342;2022-11-03T04:46:02;6.80;99.90
21744;DHT22;11034;48.556;9.342;2022-11-03T04:48:30;7.00;99.90
21744;DHT22;11034;48.556;9.342;2022-11-03T04:51:04;7.00;99.90
21744;DHT22;11034;48.556;9.342;2022-11-03T04:53:36;7.00;99.90
21744;DHT22;11034;48.556;9.342;2022-11-03T04:56:12;6.90;99.90
21744;DHT22;11034;48.556;9.342;2022-11-03T04:58:43;7.00;99.90
21744;DHT22;11034;48.556;9.342;2022-11-03T05:01:14;7.10;99.90
21744;DHT22;11034;48.556;9.342;2022-11-03T05:03:51;7.40;99.90
21744;DHT22;11034;48.556;9.342;2022-11-03T05:06:22;7.60;99.90
21744;DHT22;11034;48.556;9.342;2022-11-03T05:08:54;8.10;99.90
21744;DHT22;11034;48.556;9.342;2022-11-03T05:11:28;8.30;99.90
21744;DHT22;11034;48.556;9.342;2022-11-03T05:14:00;8.50;99.90
21744;DHT22;11034;48.556;9.342;2022-11-03T05:16:29;8.50;99.90
21744;DHT22;11034;48.556;9.342;2022-11-03T05:18:58;8.60;99.90
21744;DHT22;11034;48.556;9.342;2022-11-03T05:21:26;8.80;99.90
21744;DHT22;11034;48.556;9.342;2022-11-03T05:23:57;8.80;99.90
21744;DHT22;11034;48.556;9.342;2022-11-03T05:26:31;8.90;99.90
21744;DHT22;11034;48.556;9.342;2022-11-03T05:29:08;8.90;99.90
21744;DHT22;11034;48.556;9.342;2022-11-03T05:31:40;8.90;99.90
21744;DHT22;11034;48.556;9.342;2022-11-03T05:34:29;8.90;99.90
21744;DHT22;11034;48.556;9.342;2022-11-03T05:36:58;8.90;99.90
21744;DHT22;11034;48.556;9.342;2022-11-03T05:39:30;8.90;99.90
21744;DHT22;11034;48.556;9.342;2022-11-03T05:42:02;8.80;99.90
21744;DHT22;11034;48.556;9.342;2022-11-03T05:44:41;8.80;99.90
21744;DHT22;11034;48.556;9.342;2022-11-03T05:47:13;8.80;99.90
21744;DHT22;11034;48.556;9.342;2022-11-03T05:49:45;8.80;99.90
21744;DHT22;11034;48.556;9.342;2022-11-03T05:52:16;8.70;99.90
21744;DHT22;11034;48.556;9.342;2022-11-03T05:54:46;8.80;99.90
21744;DHT22;11034;48.556;9.342;2022-11-03T05:57:15;8.80;99.90
21744;DHT22;11034;48.556;9.342;2022-11-03T05:59:48;8.80;99.90
21744;DHT22;11034;48.556;9.342;2022-11-03T06:02:27;8.70;99.90
21744;DHT22;11034;48.556;9.342;2022-11-03T06:05:00;8.80;99.90
21744;DHT22;11034;48.556;9.342;2022-11-03T06:07:31;8.70;99.90
21744;DHT22;11034;48.556;9.342;2022-11-03T06:09:59;8.80;99.90
21744;DHT22;11034;48.556;9.342;2022-11-03T06:12:29;8.80;99.90
21744;DHT22;11034;48.556;9.342;2022-11-03T06:14:58;8.90;99.90
21744;DHT22;11034;48.556;9.342;2022-11-03T06:17:26;8.90;99.90
21744;DHT22;11034;48.556;9.342;2022-11-03T06:19:57;8.90;99.90
21744;DHT22;11034;48.556;9.342;2022-11-03T06:22:27;8.90;99.90
21744;DHT22;11034;48.556;9.342;2022-11-03T06:24:59;8.90;99.90
21744;DHT22;11034;48.556;9.342;2022-11-03T06:27:29;9.00;99.90
21744;DHT22;11034;48.556;9.342;2022-11-03T06:30:12;9.00;99.90
21744;DHT22;11034;48.556;9.342;2022-11-03T06:32:46;9.10;99.90
21744;DHT22;11034;48.556;9.342;2022-11-03T06:35:14;9.10;99.90
21744;DHT22;11034;48.556;9.342;2022-11-03T06:37:42;9.10;99.90
21744;DHT22;11034;48.556;9.342;2022-11-03T06:40:29;9.10;99.90
21744;DHT22;11034;48.556;9.342;2022-11-03T06:42:58;9.10;99.90
21744;DHT22;11034;48.556;9.342;2022-11-03T06:45:27;9.10;99.90
21744;DHT22;11034;48.556;9.342;2022-11-03T06:47:55;9.10;99.90
21744;DHT22;11034;48.556;9.342;2022-11-03T06:50:24;9.20;99.90
21744;DHT22;11034;48.556;9.342;2022-11-03T06:52:55;9.20;99.90
21744;DHT22;11034;48.556;9.342;2022-11-03T06:55:25;9.20;99.90
21744;DHT22;11034;48.556;9.342;2022-11-03T06:57:58;9.20;99.90
21744;DHT22;11034;48.556;9.342;2022-11-03T07:00:29;9.30;99.90
21744;DHT22;11034;48.556;9.342;2022-11-03T07:03:06;9.40;99.90
21744;DHT22;11034;48.556;9.342;2022-11-03T07:05:37;9.50;99.90
21744;DHT22;11034;48.556;9.342;2022-11-03T07:08:22;9.50;99.90
21744;DHT22;11034;48.556;9.342;2022-11-03T07:10:59;9.60;99.90
21744;DHT22;11034;48.556;9.342;2022-11-03T07:13:29;9.60;99.90
21744;DHT22;11034;48.556;9.342;2022-11-03T07:16:00;9.70;99.90
21744;DHT22;11034;48.556;9.342;2022-11-03T07:18:32;9.80;99.90
21744;DHT22;11034;48.556;9.342;2022-11-03T07:21:05;9.90;99.90
21744;DHT22;11034;48.556;9.342;2022-11-03T07:23:36;10.00;99.90
21744;DHT22;11034;48.556;9.342;2022-11-03T07:26:13;10.00;99.90
21744;DHT22;11034;48.556;9.342;2022-11-03T07:28:45;10.10;99.90
21744;DHT22;11034;48.556;9.342;2022-11-03T07:31:19;10.10;99.90
21744;DHT22;11034;48.556;9.342;2022-11-03T07:33:47;10.10;99.90
21744;DHT22;11034;48.556;9.342;2022-11-03T07:36:18;10.20;99.90
21744;DHT22;11034;48.556;9.342;2022-11-03T07:38:51;10.20;99.90
21744;DHT22;11034;48.556;9.342;2022-11-03T07:41:21;10.30;99.90
21744;DHT22;11034;48.556;9.342;2022-11-03T07:44:00;10.40;99.90
21744;DHT22;11034;48.556;9.342;2022-11-03T07:46:32;10.50;99.90
21744;DHT22;11034;48.556;9.342;2022-11-03T07:49:00;10.60;99.90
21744;DHT22;11034;48.556;9.342;2022-11-03T07:51:32;10.80;99.90
21744;DHT22;11034;48.556;9.342;2022-11-03T07:54:07;10.90;99.90
21744;DHT22;11034;48.556;9.342;2022-11-03T07:56:39;10.90;99.90
21744;DHT22;11034;48.556;9.342;2022-11-03T07:59:13;10.90;99.90
21744;DHT22;11034;48.556;9.342;2022-11-03T08:01:47;11.00;99.90
21744;DHT22;11034;48.556;9.342;2022-11-03T08:04:17;11.00;99.90
21744;DHT22;11034;48.556;9.342;2022-11-03T08:06:46;11.10;99.90
21744;DHT22;11034;48.556;9.342;2022-11-03T08:09:15;11.20;99.90
21744;DHT22;11034;48.556;9.342;2022-11-03T08:11:43;11.30;99.90
21744;DHT22;11034;48.556;9.342;2022-11-03T08:14:12;11.50;99.90
21744;DHT22;11034;48.556;9.342;2022-11-03T08:16:40;11.60;99.90
21744;DHT22;11034;48.556;9.342;2022-11-03T08:19:13;11.70;99.90
21744;DHT22;11034;48.556;9.342;2022-11-03T08:21:41;11.80;99.90
21744;DHT22;11034;48.556;9.342;2022-11-03T08:24:09;11.80;99.90
21744;DHT22;11034;48.556;9.342;2022-11-03T08:26:37;11.80;99.90
21744;DHT22;11034;48.556;9.342;2022-11-03T08:29:05;11.80;99.90
21744;DHT22;11034;48.556;9.342;2022-11-03T08:31:34;12.00;99.90
21744;DHT22;11034;48.556;9.342;2022-11-03T08:34:04;12.00;99.90
21744;DHT22;11034;48.556;9.342;2022-11-03T08:36:34;12.10;99.90
21744;DHT22;11034;48.556;9.342;2022-11-03T08:39:03;12.30;99.90
21744;DHT22;11034;48.556;9.342;2022-11-03T08:41:32;12.40;99.90
21744;DHT22;11034;48.556;9.342;2022-11-03T08:44:00;12.40;99.90
21744;DHT22;11034;48.556;9.342;2022-11-03T08:46:31;12.40;99.90
21744;DHT22;11034;48.556;9.342;2022-11-03T08:48:59;12.30;99.90
21744;DHT22;11034;48.556;9.342;2022-11-03T08:51:27;12.30;99.90
21744;DHT22;11034;48.556;9.342;2022-11-03T08:53:57;12.20;99.90
21744;DHT22;11034;48.556;9.342;2022-11-03T08:56:25;12.30;99.90
21744;DHT22;11034;48.556;9.342;2022-11-03T08:58:53;12.40;99.90
21744;DHT22;11034;48.556;9.342;2022-11-03T09:01:24;12.50;99.90
21744;DHT22;11034;48.556;9.342;2022-11-03T09:03:58;12.60;99.90
21744;DHT22;11034;48.556;9.342;2022-11-03T09:06:47;12.60;99.90
21744;DHT22;11034;48.556;9.342;2022-11-03T09:12:45;12.60;99.90
21744;DHT22;11034;48.556;9.342;2022-11-03T09:15:13;12.70;99.90
21744;DHT22;11034;48.556;9.342;2022-11-03T09:17:45;12.80;99.90
21744;DHT22;11034;48.556;9.342;2022-11-03T09:20:17;13.10;99.90
21744;DHT22;11034;48.556;9.342;2022-11-03T09:22:46;13.10;99.90
21744;DHT22;11034;48.556;9.342;2022-11-03T09:25:14;13.00;99.90
21744;DHT22;11034;48.556;9.342;2022-11-03T09:27:44;12.90;99.90
21744;DHT22;11034;48.556;9.342;2022-11-03T09:30:13;12.80;99.90
21744;DHT22;11034;48.556;9.342;2022-11-03T09:32:41;12.80;99.90
21744;DHT22;11034;48.556;9.342;2022-11-03T09:35:09;13.00;99.90
21744;DHT22;11034;48.556;9.342;2022-11-03T09:37:37;13.10;99.90
21744;DHT22;11034;48.556;9.342;2022-11-03T09:40:07;13.20;99.90
21744;DHT22;11034;48.556;9.342;2022-11-03T09:42:36;13.30;99.90
21744;DHT22;11034;48.556;9.342;2022-11-03T09:45:08;13.40;99.90
21744;DHT22;11034;48.556;9.342;2022-11-03T09:47:38;13.40;99.90
21744;DHT22;11034;48.556;9.342;2022-11-03T09:50:14;13.60;99.90
21744;DHT22;11034;48.556;9.342;2022-11-03T09:52:43;13.80;99.90
21744;DHT22;11034;48.556;9.342;2022-11-03T09:55:21;13.90;99.90
21744;DHT22;11034;48.556;9.342;2022-11-03T09:57:58;14.00;99.90
21744;DHT22;11034;48.556;9.342;2022-11-03T10:00:30;14.00;99.90
21744;DHT22;11034;48.556;9.342;2022-11-03T10:02:58;14.00;99.90
21744;DHT22;11034;48.556;9.342;2022-11-03T10:05:27;13.90;99.90
21744;DHT22;11034;48.556;9.342;2022-11-03T10:07:59;13.50;99.90
21744;DHT22;11034;48.556;9.342;2022-11-03T10:10:29;13.40;99.90
21744;DHT22;11034;48.556;9.342;2022-11-03T10:12:58;13.00;99.90
21744;DHT22;11034;48.556;9.342;2022-11-03T10:15:27;13.00;99.90
21744;DHT22;11034;48.556;9.342;2022-11-03T10:17:57;13.10;99.90
21744;DHT22;11034;48.556;9.342;2022-11-03T10:20:27;13.20;99.90
21744;DHT22;11034;48.556;9.342;2022-11-03T10:22:56;13.30;99.90
21744;DHT22;11034;48.556;9.342;2022-11-03T10:25:32;13.40;99.90
21744;DHT22;11034;48.556;9.342;2022-11-03T10:28:12;13.50;99.90
21744;DHT22;11034;48.556;9.342;2022-11-03T10:30:54;13.50;99.90
21744;DHT22;11034;48.556;9.342;2022-11-03T10:33:40;13.50;99.90
21744;DHT22;11034;48.556;9.342;2022-11-03T10:36:22;13.20;99.90
21744;DHT22;11034;48.556;9.342;2022-11-03T10:38:51;12.90;99.90
21744;DHT22;11034;48.556;9.342;2022-11-03T10:41:20;12.90;99.90
21744;DHT22;11034;48.556;9.342;2022-11-03T10:44:15;13.20;99.90
21744;DHT22;11034;48.556;9.342;2022-11-03T10:46:56;13.50;99.90
21744;DHT22;11034;48.556;9.342;2022-11-03T10:49:29;13.90;99.90
21744;DHT22;11034;48.556;9.342;2022-11-03T10:52:06;14.20;99.90
21744;DHT22;11034;48.556;9.342;2022-11-03T10:54:40;14.50;99.90
21744;DHT22;11034;48.556;9.342;2022-11-03T10:57:08;14.60;99.90
21744;DHT22;11034;48.556;9.342;2022-11-03T10:59:38;14.80;99.90
21744;DHT22;11034;48.556;9.342;2022-11-03T11:02:13;14.70;99.90
21744;DHT22;11034;48.556;9.342;2022-11-03T11:04:45;14.40;99.90
21744;DHT22;11034;48.556;9.342;2022-11-03T11:07:18;14.00;99.90
21744;DHT22;11034;48.556;9.342;2022-11-03T11:09:50;13.90;99.90
21744;DHT22;11034;48.556;9.342;2022-11-03T11:12:21;14.00;99.90
21744;DHT22;11034;48.556;9.342;2022-11-03T11:14:54;14.20;99.90
21744;DHT22;11034;48.556;9.342;2022-11-03T11:17:43;14.40;99.90
21744;DHT22;11034;48.556;9.342;2022-11-03T11:20:44;14.60;99.90
21744;DHT22;11034;48.556;9.342;2022-11-03T11:23:48;14.80;99.90
21744;DHT22;11034;48.556;9.342;2022-11-03T11:26:39;14.80;99.90
21744;DHT22;11034;48.556;9.342;2022-11-03T11:29:40;14.90;99.90
21744;DHT22;11034;48.556;9.342;2022-11-03T11:35:21;15.10;99.90
21744;DHT22;11034;48.556;9.342;2022-11-03T11:44:50;15.40;99.90
21744;DHT22;11034;48.556;9.342;2022-11-03T11:47:33;15.30;99.90
21744;DHT22;11034;48.556;9.342;2022-11-03T11:50:20;15.30;99.90
21744;DHT22;11034;48.556;9.342;2022-11-03T11:52:52;15.30;99.90
21744;DHT22;11034;48.556;9.342;2022-11-03T11:55:28;15.40;99.90
21744;DHT22;11034;48.556;9.342;2022-11-03T11:57:59;15.50;99.90
21744;DHT22;11034;48.556;9.342;2022-11-03T12:00:33;15.50;99.90
21744;DHT22;11034;48.556;9.342;2022-11-03T12:03:03;15.40;99.90
21744;DHT22;11034;48.556;9.342;2022-11-03T12:05:34;15.50;99.90
21744;DHT22;11034;48.556;9.342;2022-11-03T12:08:16;15.60;99.90
21744;DHT22;11034;48.556;9.342;2022-11-03T12:10:51;15.80;99.90
21744;DHT22;11034;48.556;9.342;2022-11-03T12:16:28;15.90;99.90
21744;DHT22;11034;48.556;9.342;2022-11-03T12:19:07;15.90;99.90
21744;DHT22;11034;48.556;9.342;2022-11-03T12:21:55;15.90;99.90
21744;DHT22;11034;48.556;9.342;2022-11-03T12:27:41;15.80;99.90
21744;DHT22;11034;48.556;9.342;2022-11-03T12:30:17;15.70;99.90
21744;DHT22;11034;48.556;9.342;2022-11-03T12:32:47;15.80;99.90
21744;DHT22;11034;48.556;9.342;2022-11-03T12:35:15;15.70;99.90
21744;DHT22;11034;48.556;9.342;2022-11-03T12:37:43;15.70;99.90
21744;DHT22;11034;48.556;9.342;2022-11-03T12:40:12;15.60;99.90
21744;DHT22;11034;48.556;9.342;2022-11-03T12:42:40;15.50;99.90
21744;DHT22;11034;48.556;9.342;2022-11-03T12:45:09;15.40;99.90
21744;DHT22;11034;48.556;9.342;2022-11-03T12:47:39;15.50;99.90
21744;DHT22;11034;48.556;9.342;2022-11-03T12:50:09;15.40;99.90
21744;DHT22;11034;48.556;9.342;2022-11-03T12:52:37;15.40;99.90
21744;DHT22;11034;48.556;9.342;2022-11-03T12:55:05;15.40;99.90
21744;DHT22;11034;48.556;9.342;2022-11-03T12:57:33;15.40;99.90
21744;DHT22;11034;48.556;9.342;2022-11-03T13:00:03;15.40;99.90
21744;DHT22;11034;48.556;9.342;2022-11-03T13:02:32;15.40;99.90
21744;DHT22;11034;48.556;9.342;2022-11-03T13:05:02;15.40;99.90
21744;DHT22;11034;48.556;9.342;2022-11-03T13:07:32;15.50;99.90
21744;DHT22;11034;48.556;9.342;2022-11-03T13:10:01;15.60;99.90
21744;DHT22;11034;48.556;9.342;2022-11-03T13:12:30;15.50;99.90
21744;DHT22;11034;48.556;9.342;2022-11-03T13:15:00;15.30;99.90
21744;DHT22;11034;48.556;9.342;2022-11-03T13:17:29;15.10;99.90
21744;DHT22;11034;48.556;9.342;2022-11-03T13:20:18;15.00;99.90
21744;DHT22;11034;48.556;9.342;2022-11-03T13:22:56;15.00;99.90
21744;DHT22;11034;48.556;9.342;2022-11-03T13:25:24;14.90;99.90
21744;DHT22;11034;48.556;9.342;2022-11-03T13:27:55;14.80;99.90
21744;DHT22;11034;48.556;9.342;2022-11-03T13:30:29;14.70;99.90
21744;DHT22;11034;48.556;9.342;2022-11-03T13:32:59;14.80;99.90
21744;DHT22;11034;48.556;9.342;2022-11-03T13:35:27;14.80;99.90
21744;DHT22;11034;48.556;9.342;2022-11-03T13:37:57;14.80;99.90
21744;DHT22;11034;48.556;9.342;2022-11-03T13:40:26;14.80;99.90
21744;DHT22;11034;48.556;9.342;2022-11-03T13:43:14;14.80;99.90
21744;DHT22;11034;48.556;9.342;2022-11-03T13:45:43;14.80;99.90
21744;DHT22;11034;48.556;9.342;2022-11-03T13:48:12;14.80;99.90
21744;DHT22;11034;48.556;9.342;2022-11-03T13:51:02;14.70;99.90
21744;DHT22;11034;48.556;9.342;2022-11-03T13:53:33;14.60;99.90
21744;DHT22;11034;48.556;9.342;2022-11-03T13:56:21;14.50;99.90
21744;DHT22;11034;48.556;9.342;2022-11-03T13:58:53;14.30;99.90
21744;DHT22;11034;48.556;9.342;2022-11-03T14:01:42;14.30;99.90
21744;DHT22;11034;48.556;9.342;2022-11-03T14:04:12;14.10;99.90
21744;DHT22;11034;48.556;9.342;2022-11-03T14:07:00;13.90;99.90
21744;DHT22;11034;48.556;9.342;2022-11-03T14:09:30;13.90;99.90
21744;DHT22;11034;48.556;9.342;2022-11-03T14:11:59;13.90;99.90
21744;DHT22;11034;48.556;9.342;2022-11-03T14:14:44;13.90;99.90
21744;DHT22;11034;48.556;9.342;2022-11-03T14:17:12;13.80;99.90
21744;DHT22;11034;48.556;9.342;2022-11-03T14:19:41;13.80;99.90
21744;DHT22;11034;48.556;9.342;2022-11-03T14:22:17;13.70;99.90
21744;DHT22;11034;48.556;9.342;2022-11-03T14:24:50;13.70;99.90
21744;DHT22;11034;48.556;9.342;2022-11-03T14:27:22;13.60;99.90
21744;DHT22;11034;48.556;9.342;2022-11-03T14:29:51;13.50;99.90
21744;DHT22;11034;48.556;9.342;2022-11-03T14:32:22;13.50;99.90
21744;DHT22;11034;48.556;9.342;2022-11-03T14:34:50;13.50;99.90
21744;DHT22;11034;48.556;9.342;2022-11-03T14:37:18;13.40;99.90
21744;DHT22;11034;48.556;9.342;2022-11-03T14:39:49;13.40;99.90
21744;DHT22;11034;48.556;9.342;2022-11-03T14:42:17;13.40;99.90
21744;DHT22;11034;48.556;9.342;2022-11-03T14:44:47;13.40;99.90
21744;DHT22;11034;48.556;9.342;2022-11-03T14:47:19;13.40;99.90
21744;DHT22;11034;48.556;9.342;2022-11-03T14:49:48;13.30;99.90
21744;DHT22;11034;48.556;9.342;2022-11-03T14:52:17;13.30;99.90
21744;DHT22;11034;48.556;9.342;2022-11-03T14:54:45;13.20;99.90
21744;DHT22;11034;48.556;9.342;2022-11-03T14:57:15;13.10;99.90
21744;DHT22;11034;48.556;9.342;2022-11-03T14:59:43;13.10;99.90
21744;DHT22;11034;48.556;9.342;2022-11-03T15:02:25;13.00;99.90
21744;DHT22;11034;48.556;9.342;2022-11-03T15:04:58;12.90;99.90
21744;DHT22;11034;48.556;9.342;2022-11-03T15:07:27;12.90;99.90
21744;DHT22;11034;48.556;9.342;2022-11-03T15:09:59;13.00;99.90
21744;DHT22;11034;48.556;9.342;2022-11-03T15:12:29;13.00;99.90
21744;DHT22;11034;48.556;9.342;2022-11-03T15:15:00;13.00;99.90
21744;DHT22;11034;48.556;9.342;2022-11-03T15:17:28;13.00;99.90
21744;DHT22;11034;48.556;9.342;2022-11-03T15:19:57;13.00;99.90
21744;DHT22;11034;48.556;9.342;2022-11-03T15:22:25;12.90;99.90
21744;DHT22;11034;48.556;9.342;2022-11-03T15:25:14;12.80;99.90
21744;DHT22;11034;48.556;9.342;2022-11-03T15:27:50;12.70;99.90
21744;DHT22;11034;48.556;9.342;2022-11-03T15:30:21;12.60;99.90
21744;DHT22;11034;48.556;9.342;2022-11-03T15:32:51;12.50;99.90
21744;DHT22;11034;48.556;9.342;2022-11-03T15:35:20;12.30;99.90
21744;DHT22;11034;48.556;9.342;2022-11-03T15:37:48;12.20;99.90
21744;DHT22;11034;48.556;9.342;2022-11-03T15:40:17;12.10;99.90
21744;DHT22;11034;48.556;9.342;2022-11-03T15:42:45;12.00;99.90
21744;DHT22;11034;48.556;9.342;2022-11-03T15:45:15;12.00;99.90
21744;DHT22;11034;48.556;9.342;2022-11-03T15:47:44;11.90;99.90
21744;DHT22;11034;48.556;9.342;2022-11-03T15:50:12;11.90;99.90
21744;DHT22;11034;48.556;9.342;2022-11-03T15:52:41;11.90;99.90
21744;DHT22;11034;48.556;9.342;2022-11-03T15:55:10;11.90;99.90
21744;DHT22;11034;48.556;9.342;2022-11-03T15:57:38;11.90;99.90
21744;DHT22;11034;48.556;9.342;2022-11-03T16:00:09;11.90;99.90
21744;DHT22;11034;48.556;9.342;2022-11-03T16:02:39;11.90;99.90
21744;DHT22;11034;48.556;9.342;2022-11-03T16:05:08;11.90;99.90
21744;DHT22;11034;48.556;9.342;2022-11-03T16:07:37;11.90;99.90
21744;DHT22;11034;48.556;9.342;2022-11-03T16:10:06;12.00;99.90
21744;DHT22;11034;48.556;9.342;2022-11-03T16:12:35;12.00;99.90
21744;DHT22;11034;48.556;9.342;2022-11-03T16:15:05;12.00;99.90
21744;DHT22;11034;48.556;9.342;2022-11-03T16:17:33;12.10;99.90
21744;DHT22;11034;48.556;9.342;2022-11-03T16:20:07;12.10;99.90
21744;DHT22;11034;48.556;9.342;2022-11-03T16:22:36;12.10;99.90
21744;DHT22;11034;48.556;9.342;2022-11-03T16:25:11;12.10;99.90
21744;DHT22;11034;48.556;9.342;2022-11-03T16:27:47;12.00;99.90
21744;DHT22;11034;48.556;9.342;2022-11-03T16:30:20;12.10;99.90